This is the latest recevied weather packets stored in our database for station/object KN6KS. If no packets are shown the sender has not sent any weather packets the latest 10 day(s).
| Time | Temp. | Humidity | Pressure | Rain* | Wind** | Luminosity | Snow |
|---|---|---|---|---|---|---|---|
| 1777566106 | 20.56° C | 34% | 1012.9 hPa | 0 mm | - | 587 W/m² | - |
| 1777565498 | 21.11° C | 34% | 1012.8 hPa | 0 mm | - | 542 W/m² | - |
| 1777563369 | 18.89° C | 40% | 1012.8 hPa | 0 mm | - | 358 W/m² | - |
| 1777563065 | 18.89° C | 40% | 1013.1 hPa | 0 mm | - | 337 W/m² | - |
| 1777562760 | 18.89° C | 42% | 1013 hPa | 0 mm | - | 316 W/m² | - |
| 1777562459 | 18.89° C | 44% | 1012.8 hPa | 0 mm | - | 71 W/m² | - |
| 1777561854 | 17.78° C | 45% | 1012.9 hPa | 0 mm | - | 234 W/m² | - |
| 1777561550 | 17.78° C | 45% | 1013.2 hPa | 0 mm | - | 234 W/m² | - |
| 1777561245 | 17.22° C | 48% | 1012.9 hPa | 0 mm | - | 224 W/m² | - |
| 1777560339 | 16.67° C | 50% | 1012.8 hPa | 0 mm | - | 154 W/m² | - |
| 1777559732 | 16.11° C | 53% | 1012.7 hPa | 0 mm | - | 68 W/m² | - |
| 1777557915 | 13.89° C | 55% | 1012.6 hPa | 0 mm | - | 50 W/m² | - |
| 1777557308 | 13.33° C | 56% | 1012.8 hPa | 0 mm | - | 42 W/m² | - |
| 1777556092 | 12.78° C | 58% | 1012.4 hPa | 0 mm | - | 25 W/m² | - |
| 1777555184 | 12.22° C | 58% | 1012.1 hPa | 0 mm | - | 12 W/m² | - |
| 1777554882 | 11.67° C | 61% | 1012.1 hPa | 0 mm | - | 8 W/m² | - |
| 1777554578 | 11.67° C | 60% | 1012 hPa | 0 mm | - | 4 W/m² | - |
| 1777554275 | 12.22° C | 58% | 1012.1 hPa | 0 mm | - | 1 W/m² | - |
| 1777553062 | 12.78° C | 55% | 1012.2 hPa | 0 mm | - | 0 W/m² | - |
| 1777552453 | 12.78° C | 56% | 1012.1 hPa | 0 mm | - | 0 W/m² | - |
| 1777552149 | 12.78° C | 56% | 1012.5 hPa | 0 mm | - | 0 W/m² | - |
| 1777551846 | 12.78° C | 57% | 1012.4 hPa | 0 mm | - | 0 W/m² | - |
| 1777550330 | 11.67° C | 60% | 1012.6 hPa | 0 mm | - | 0 W/m² | - |
| 1777549724 | 11.67° C | 62% | 1012.4 hPa | 0 mm | - | 0 W/m² | - |
| 1777548812 | 12.22° C | 61% | 1012.4 hPa | 0 mm | - | 0 W/m² | - |
* Rain latest hour (hover to see other rain measurements)
** Current wind speed in m/s (hover to see current wind gust speed)